White Post, Virginia
Current Conditions -  °F | °C
As of 7:35 AM on Tuesday 27 Jan 2015 (Local Time) from KOKV Reporting Station
Light Snow Light Snow  
Wind Chill: 20°   Ceiling: 1500
Heat Index: 28°   Visibility: 1.7mi
Dew Point: 21°   Wind: 8mph
Humidity: 74%   Direction: 320°NW
Pressure: 29.82"   Gusts: NA
Location:  39.06°N, 78.1°W
Report Text: KOKV 271235Z AUTO 32007KT 1 3/4SM -SN BKN015 OVC036 M02/M06 A2982 RMK AO2
Loading
Personal Weather Stations






























Interactive Weather Map New forecast layout! Learn more

10-Day Weather Forecast

Advertisements
Track Severe Weather on mobile